Time;durP1;ratioP1;P1;durP2;ratioP2;P2;SDS_P1;SDS_P2;PMS_P1;PMS_P2;Temp;Humidity;BMP_temperature;BMP_pressure;BME280_temperature;BME280_humidity;BME280_pressure;Samples;Min_cycle;Max_cycle;Signal;HPM_P1;HPM_P2
2022/11/07 00:00:10;;;;;;;37.78;23.40;;;;;;;16.94;67.56;99956.13;5049809;28;20028;-43
2022/11/07 00:02:36;;;;;;;34.03;23.05;;;;;;;17.03;66.84;99956.56;5049755;28;20021;-43
2022/11/07 00:05:02;;;;;;;34.13;23.52;;;;;;;16.96;66.78;99954.03;5049562;28;20535;-42
2022/11/07 00:07:27;;;;;;;33.65;22.95;;;;;;;16.86;66.66;99961.06;5049816;28;20029;-42
2022/11/07 00:09:53;;;;;;;33.60;23.23;;;;;;;16.84;66.73;99971.25;5049628;28;20029;-42
2022/11/07 00:12:18;;;;;;;38.80;23.02;;;;;;;16.91;66.46;99959.31;5049457;28;20404;-43
2022/11/07 00:14:44;;;;;;;35.50;22.83;;;;;;;16.89;67.08;99963.31;5049869;28;20021;-43
2022/11/07 00:17:09;;;;;;;34.00;22.90;;;;;;;16.66;67.28;99959.59;5049724;28;20341;-42
2022/11/07 00:19:34;;;;;;;37.92;23.17;;;;;;;16.65;67.20;99957.94;5049605;28;20025;-43
2022/11/07 00:22:00;;;;;;;36.13;22.42;;;;;;;16.56;67.77;99959.38;5049513;28;20024;-42
2022/11/07 00:24:25;;;;;;;36.50;23.08;;;;;;;16.60;67.11;99957.84;5049016;28;20056;-42
2022/11/07 00:26:51;;;;;;;37.80;22.10;;;;;;;16.66;67.21;99962.28;5049221;28;20028;-44
2022/11/07 00:29:19;;;;;;;33.75;23.02;;;;;;;16.40;67.72;99956.38;5049353;28;20059;-43
2022/11/07 00:31:45;;;;;;;35.55;24.98;;;;;;;16.59;67.82;99958.91;5049268;28;20484;-42
2022/11/07 00:34:11;;;;;;;33.63;22.75;;;;;;;16.04;69.50;99962.84;5049588;28;20021;-41
2022/11/07 00:36:37;;;;;;;34.22;23.50;;;;;;;15.96;70.62;99955.97;5051976;28;20028;-42
2022/11/07 00:39:03;;;;;;;35.67;23.52;;;;;;;16.09;69.45;99959.44;5052764;28;20540;-43
2022/11/07 00:41:28;;;;;;;35.33;22.63;;;;;;;16.20;69.38;99964.81;5052889;28;20021;-42
2022/11/07 00:43:54;;;;;;;31.90;22.80;;;;;;;16.15;69.67;99955.84;5052438;28;20029;-43
2022/11/07 00:46:21;;;;;;;34.85;22.77;;;;;;;16.01;69.88;99961.44;5052578;28;20029;-45
2022/11/07 00:48:47;;;;;;;32.95;22.30;;;;;;;16.12;70.08;99962.47;5052346;28;20025;-44
2022/11/07 00:51:22;;;;;;;35.00;22.98;;;;;;;16.12;69.33;99961.66;5052712;28;20040;-44
2022/11/07 00:53:47;;;;;;;34.97;22.77;;;;;;;16.18;69.43;99958.03;5052448;28;20028;-43
2022/11/07 00:56:15;;;;;;;31.08;22.13;;;;;;;16.40;68.94;99967.13;5052019;28;20488;-47
2022/11/07 00:58:41;;;;;;;31.58;22.20;;;;;;;16.54;68.64;99956.91;5051776;28;20570;-43
2022/11/07 01:01:27;;;;;;;34.30;23.00;;;;;;;16.57;67.96;99958.34;5052187;28;20060;-44
2022/11/07 01:06:41;;;;;;;35.92;22.77;;;;;;;16.61;67.87;99957.59;5052880;28;20090;-44
2022/11/07 01:09:11;;;;;;;32.63;22.73;;;;;;;16.73;67.58;99965.63;5052356;28;20115;-43
2022/11/07 01:11:38;;;;;;;29.10;21.77;;;;;;;16.72;67.10;99968.56;5052471;28;20082;-44
2022/11/07 01:14:04;;;;;;;31.42;21.50;;;;;;;16.53;67.89;99966.06;5052041;28;20449;-44
2022/11/07 01:16:33;;;;;;;32.92;22.85;;;;;;;16.54;68.36;99962.28;5052326;28;20154;-44
2022/11/07 01:18:59;;;;;;;32.67;21.57;;;;;;;16.69;68.10;99969.03;5052728;28;20028;-37
2022/11/07 01:21:24;;;;;;;36.65;22.63;;;;;;;16.61;67.75;99967.56;5052219;28;20271;-37
2022/11/07 01:23:50;;;;;;;34.40;22.67;;;;;;;16.66;67.43;99964.97;5051919;28;20170;-38
2022/11/07 01:26:16;;;;;;;31.35;23.35;;;;;;;16.69;67.34;99967.16;5052161;28;20025;-38
2022/11/07 01:28:41;;;;;;;34.53;22.45;;;;;;;16.57;67.86;99950.28;5052101;28;20032;-37
2022/11/07 01:31:09;;;;;;;35.30;22.60;;;;;;;16.63;67.72;99964.63;5052074;28;20032;-37
2022/11/07 01:33:36;;;;;;;33.13;22.00;;;;;;;16.67;67.94;99957.72;5052730;28;20013;-38
2022/11/07 01:36:04;;;;;;;35.40;23.40;;;;;;;16.75;67.00;99963.53;5052798;28;20041;-37
2022/11/07 01:38:29;;;;;;;35.17;23.38;;;;;;;16.70;67.35;99959.94;5052521;28;20024;-38
2022/11/07 01:44:01;;;;;;;32.10;22.92;;;;;;;16.74;67.88;99969.16;5047793;28;20599;-38
2022/11/07 01:46:39;;;;;;;32.25;23.02;;;;;;;16.73;67.61;99965.63;5052324;28;20059;-38
2022/11/07 01:49:16;;;;;;;30.20;21.90;;;;;;;16.57;68.50;99955.66;5052150;28;20021;-38
2022/11/07 01:51:59;;;;;;;31.65;22.55;;;;;;;16.79;67.70;99962.00;5052636;28;20098;-38
2022/11/07 01:54:32;;;;;;;33.53;23.05;;;;;;;16.71;67.34;99964.25;5052185;28;20020;-38
2022/11/07 01:57:02;;;;;;;37.05;23.35;;;;;;;16.82;67.22;99963.44;5052345;28;20032;-38
2022/11/07 01:59:30;;;;;;;32.47;22.10;;;;;;;16.79;67.16;99969.22;5052175;28;20137;-38
2022/11/07 02:01:55;;;;;;;43.33;22.42;;;;;;;16.85;67.47;99959.44;5052440;28;20072;-38
2022/11/07 02:04:24;;;;;;;33.30;22.63;;;;;;;16.89;67.34;99966.78;5052279;28;20166;-38
2022/11/07 02:07:04;;;;;;;31.00;22.13;;;;;;;16.88;67.20;99967.03;5051816;28;20028;-38
2022/11/07 02:09:30;;;;;;;34.75;22.80;;;;;;;16.74;67.11;99969.97;5052418;28;20029;-38
2022/11/07 02:11:59;;;;;;;31.38;21.73;;;;;;;16.40;69.04;99960.94;5051988;28;20024;-38
2022/11/07 02:14:26;;;;;;;31.92;22.95;;;;;;;16.36;68.92;99965.16;5051732;28;20023;-38
2022/11/07 02:16:52;;;;;;;33.85;22.60;;;;;;;16.42;68.59;99969.56;5050839;28;20028;-38
2022/11/07 02:19:21;;;;;;;32.90;22.30;;;;;;;16.53;68.42;99974.09;5051811;28;20021;-38
2022/11/07 02:22:00;;;;;;;32.60;22.80;;;;;;;16.70;68.57;99974.19;5052053;28;20087;-38
2022/11/07 02:24:30;;;;;;;34.50;21.77;;;;;;;16.67;68.40;99980.03;5051143;28;20106;-38
2022/11/07 02:26:57;;;;;;;31.42;22.02;;;;;;;16.73;67.76;99973.69;5051980;28;20024;-38
2022/11/07 02:29:25;;;;;;;33.03;22.27;;;;;;;16.83;67.36;99980.34;5051591;28;20028;-38
2022/11/07 02:32:05;;;;;;;32.08;22.92;;;;;;;16.79;67.78;99978.13;5051339;28;20025;-39
2022/11/07 02:34:31;;;;;;;35.05;22.88;;;;;;;16.70;67.42;99981.44;5051918;28;20025;-39
2022/11/07 02:36:58;;;;;;;35.80;22.73;;;;;;;16.69;67.61;99977.91;5051330;28;20086;-37
2022/11/07 02:39:24;;;;;;;36.13;22.98;;;;;;;16.71;68.14;99988.44;5051386;28;20021;-38
2022/11/07 02:41:50;;;;;;;32.17;23.30;;;;;;;16.69;68.14;99980.59;5051423;28;20025;-37
2022/11/07 02:44:17;;;;;;;37.72;23.83;;;;;;;16.70;67.55;99973.38;5051277;28;20078;-37
2022/11/07 02:46:42;;;;;;;34.53;24.20;;;;;;;16.31;69.53;99986.53;5051064;28;20028;-37
2022/11/07 02:49:08;;;;;;;35.30;24.60;;;;;;;16.39;69.88;99994.22;5051456;28;20154;-37
2022/11/07 02:51:33;;;;;;;35.63;23.58;;;;;;;16.11;69.84;99990.38;5051083;28;20036;-38
2022/11/07 02:53:59;;;;;;;36.90;24.55;;;;;;;16.18;70.66;99996.47;5051388;28;20065;-37
2022/11/07 02:56:24;;;;;;;36.80;24.33;;;;;;;16.30;69.67;99995.63;5051425;28;20084;-37
2022/11/07 02:58:51;;;;;;;35.83;24.25;;;;;;;16.45;69.28;99998.66;5050548;28;20040;-37
2022/11/07 03:01:17;;;;;;;43.45;26.23;;;;;;;16.60;68.57;99990.06;5050736;28;20013;-37
2022/11/07 03:03:46;;;;;;;38.90;24.70;;;;;;;16.53;68.77;99986.72;5050935;28;20508;-38
2022/11/07 03:06:14;;;;;;;37.10;25.10;;;;;;;16.41;68.76;99995.63;5051004;28;20024;-37
2022/11/07 03:08:40;;;;;;;35.97;25.77;;;;;;;16.38;69.69;99996.09;5051002;28;20045;-38
2022/11/07 03:11:06;;;;;;;38.53;26.48;;;;;;;16.28;69.65;99986.97;5050881;28;20021;-38
2022/11/07 03:13:32;;;;;;;40.28;25.88;;;;;;;16.09;69.56;99991.66;5050870;28;20175;-38
2022/11/07 03:15:58;;;;;;;39.60;26.02;;;;;;;16.14;69.91;99978.34;5050778;28;20425;-37
2022/11/07 03:18:24;;;;;;;38.50;26.08;;;;;;;16.27;69.37;99980.78;5050889;28;20043;-37
2022/11/07 03:20:49;;;;;;;41.20;26.02;;;;;;;16.37;68.79;99986.41;5050847;28;20029;-38
2022/11/07 03:23:15;;;;;;;37.75;26.25;;;;;;;16.11;70.06;99984.22;5050868;28;20061;-38
2022/11/07 03:25:41;;;;;;;35.50;25.17;;;;;;;16.25;68.81;99990.97;5050486;28;20049;-38
2022/11/07 03:28:06;;;;;;;38.20;25.58;;;;;;;16.31;68.55;99991.88;5050672;28;20063;-37
2022/11/07 03:30:32;;;;;;;37.60;26.55;;;;;;;16.29;68.75;99988.63;5050674;28;20420;-38
2022/11/07 03:32:57;;;;;;;37.47;25.40;;;;;;;16.35;68.75;99993.84;5050226;28;20029;-38
2022/11/07 03:35:23;;;;;;;37.35;25.63;;;;;;;16.37;68.77;99993.63;5050306;28;20060;-38
2022/11/07 03:37:48;;;;;;;37.25;25.70;;;;;;;16.35;68.35;99993.03;5050254;28;20029;-38
2022/11/07 03:40:15;;;;;;;35.53;25.77;;;;;;;16.41;68.06;99987.56;5050756;28;20021;-37
2022/11/07 03:42:44;;;;;;;37.28;26.10;;;;;;;16.37;68.65;99990.94;5050688;28;20450;-37
2022/11/07 03:45:12;;;;;;;37.08;25.85;;;;;;;16.23;69.20;99995.75;5050325;28;20072;-38
2022/11/07 03:47:40;;;;;;;37.85;26.50;;;;;;;16.19;68.58;99990.03;5050091;28;20029;-38
2022/11/07 03:50:07;;;;;;;38.88;26.20;;;;;;;16.18;69.27;99984.88;5053706;28;20461;-37
2022/11/07 03:52:33;;;;;;;35.80;25.23;;;;;;;16.13;69.00;99988.28;5053602;28;20025;-38
2022/11/07 03:54:58;;;;;;;38.05;25.70;;;;;;;16.20;69.51;99983.63;5050059;28;20472;-37
2022/11/07 03:57:24;;;;;;;38.92;24.90;;;;;;;15.93;69.49;99991.31;5060658;28;20378;-38
2022/11/07 03:59:49;;;;;;;37.63;25.67;;;;;;;16.02;69.91;99992.59;5070409;28;20103;-37
2022/11/07 04:02:15;;;;;;;36.28;25.05;;;;;;;15.98;69.66;100002.16;5070318;28;20024;-37
2022/11/07 04:04:40;;;;;;;33.05;25.08;;;;;;;15.87;69.82;100004.84;5055652;28;20044;-37
2022/11/07 04:07:06;;;;;;;49.03;32.33;;;;;;;15.93;70.19;100007.41;5050436;28;20067;-37
2022/11/07 04:09:31;;;;;;;55.42;37.67;;;;;;;15.96;69.61;100006.94;5050325;28;20061;-37
2022/11/07 04:17:26;;;;;;;43.97;29.27;;;;;;;16.07;69.67;100007.19;5054523;28;20082;-37
2022/11/07 04:19:56;;;;;;;41.30;26.77;;;;;;;16.01;69.47;100015.13;5054233;28;20103;-37
2022/11/07 04:22:23;;;;;;;38.50;26.10;;;;;;;16.02;70.01;100002.53;5053948;28;20037;-37
2022/11/07 04:24:48;;;;;;;34.78;25.17;;;;;;;16.03;70.26;100015.72;5053846;28;20071;-36
2022/11/07 04:30:22;;;;;;;36.95;26.55;;;;;;;15.93;70.31;100020.00;5059188;28;20085;-36
2022/11/07 04:32:53;;;;;;;40.95;27.05;;;;;;;15.97;70.42;100011.28;5073121;28;20099;-37
2022/11/07 04:35:20;;;;;;;38.33;25.35;;;;;;;15.93;70.13;100010.09;5072744;28;20392;-37
2022/11/07 04:37:46;;;;;;;41.03;25.73;;;;;;;15.94;70.52;100003.69;5072724;28;20024;-37
2022/11/07 04:40:12;;;;;;;37.28;26.17;;;;;;;16.09;70.01;100007.75;5072865;28;20020;-37
2022/11/07 04:42:38;;;;;;;45.53;26.55;;;;;;;16.05;69.83;100010.13;5073306;28;20024;-37
2022/11/07 04:45:04;;;;;;;38.28;26.40;;;;;;;16.08;70.45;100008.81;5072940;28;20023;-38
2022/11/07 04:47:30;;;;;;;49.97;32.70;;;;;;;16.12;69.66;100013.47;5072125;28;20086;-37
2022/11/07 04:49:55;;;;;;;38.42;25.02;;;;;;;16.18;69.67;100012.56;5072662;28;20025;-38
2022/11/07 04:52:20;;;;;;;36.05;23.58;;;;;;;16.03;70.08;100002.28;5072561;28;20016;-37
2022/11/07 04:54:46;;;;;;;32.97;21.48;;;;;;;16.04;69.87;100011.16;5072653;28;20013;-37
2022/11/07 04:57:11;;;;;;;31.70;20.33;;;;;;;16.12;69.65;100007.31;5072560;28;20392;-37
2022/11/07 04:59:37;;;;;;;30.58;19.02;;;;;;;16.19;68.81;100010.69;5072782;28;20024;-37
2022/11/07 05:02:02;;;;;;;26.92;17.40;;;;;;;16.25;68.00;100012.44;5073322;28;20033;-37
2022/11/07 05:04:28;;;;;;;25.73;17.13;;;;;;;16.01;68.31;100008.94;5073084;28;20024;-37
2022/11/07 05:06:53;;;;;;;26.85;16.63;;;;;;;16.07;68.84;100016.06;5073182;28;20035;-37
2022/11/07 05:09:19;;;;;;;23.67;16.17;;;;;;;16.15;70.94;100018.41;5073006;28;20035;-37
2022/11/07 05:11:46;;;;;;;24.13;16.10;;;;;;;16.14;67.64;100024.00;5072839;28;20062;-38
2022/11/07 05:14:12;;;;;;;32.53;18.95;;;;;;;16.03;67.95;100013.03;5073119;28;20048;-38
2022/11/07 05:16:41;;;;;;;36.88;22.73;;;;;;;15.98;69.18;100031.69;5072465;28;20020;-37
2022/11/07 05:19:06;;;;;;;35.50;22.92;;;;;;;15.99;68.82;100027.13;5072363;28;20028;-37
2022/11/07 05:21:32;;;;;;;37.42;23.20;;;;;;;16.09;70.54;100029.22;5068295;28;20488;-36
2022/11/07 05:23:57;;;;;;;37.97;23.83;;;;;;;16.31;68.62;100037.53;5036826;28;20041;-36
2022/11/07 05:26:23;;;;;;;36.65;23.65;;;;;;;16.13;69.24;100023.19;5051858;28;20053;-36
2022/11/07 05:28:48;;;;;;;39.00;23.30;;;;;;;16.19;69.42;100041.03;5040380;28;20442;-37
2022/11/07 05:31:15;;;;;;;37.80;22.67;;;;;;;16.22;68.40;100031.69;5041177;28;20535;-37
2022/11/07 05:33:41;;;;;;;41.58;24.25;;;;;;;16.22;68.99;100039.75;5032920;28;20036;-37
2022/11/07 05:36:14;;;;;;;37.20;22.92;;;;;;;16.28;68.10;100030.78;5031828;28;20021;-36
2022/11/07 05:38:41;;;;;;;38.42;23.40;;;;;;;16.31;68.33;100043.72;5032370;28;20022;-36
2022/11/07 05:41:07;;;;;;;34.60;22.25;;;;;;;16.43;67.59;100043.75;5031878;28;20547;-36
2022/11/07 05:43:33;;;;;;;33.63;21.35;;;;;;;16.32;67.76;100057.97;5031667;28;20026;-35
2022/11/07 05:45:59;;;;;;;40.70;23.10;;;;;;;16.18;68.44;100066.28;5030542;28;20465;-38
2022/11/07 05:48:24;;;;;;;38.53;24.48;;;;;;;15.98;69.59;100063.91;5030947;28;20018;-37
2022/11/07 05:50:50;;;;;;;49.22;25.08;;;;;;;16.20;69.23;100069.53;5030996;28;20045;-37
2022/11/07 05:53:15;;;;;;;50.20;24.48;;;;;;;16.33;68.70;100070.34;5030579;28;20017;-37
2022/11/07 05:55:41;;;;;;;43.58;23.92;;;;;;;16.47;67.70;100070.91;5030205;28;20043;-37
2022/11/07 05:58:10;;;;;;;46.00;24.05;;;;;;;16.32;69.37;100069.53;5030518;28;20025;-37
2022/11/07 06:00:36;;;;;;;43.60;23.63;;;;;;;16.64;68.77;100085.31;5030794;28;20021;-36
2022/11/07 06:03:01;;;;;;;43.47;23.35;;;;;;;16.82;68.42;100087.03;5030976;28;20404;-36
2022/11/07 06:05:27;;;;;;;39.03;23.13;;;;;;;17.03;67.33;100085.59;5031036;28;20075;-36
2022/11/07 06:07:53;;;;;;;42.45;22.70;;;;;;;17.20;66.64;100096.44;5031291;28;20094;-38
2022/11/07 06:10:18;;;;;;;40.78;22.42;;;;;;;17.33;65.79;100103.41;5031697;28;20039;-37
2022/11/07 06:12:44;;;;;;;38.80;22.95;;;;;;;17.42;65.75;100101.16;5031825;28;20057;-37
2022/11/07 06:15:10;;;;;;;51.08;24.98;;;;;;;17.47;64.69;100104.75;5031410;28;20105;-37
2022/11/07 06:17:36;;;;;;;42.40;26.00;;;;;;;17.62;64.44;100109.59;5031394;28;20141;-40
2022/11/07 06:20:01;;;;;;;46.80;26.75;;;;;;;17.45;64.83;100106.88;5031875;28;20025;-40
2022/11/07 06:22:29;;;;;;;44.97;26.88;;;;;;;17.34;64.81;100121.16;5031639;28;20130;-37
2022/11/07 06:24:55;;;;;;;53.92;35.50;;;;;;;17.41;64.26;100115.66;5043957;28;20125;-37
2022/11/07 06:27:20;;;;;;;56.60;34.67;;;;;;;17.27;65.36;100124.00;5051348;28;20107;-38
2022/11/07 06:29:46;;;;;;;51.85;25.33;;;;;;;17.52;65.60;100123.69;5051085;28;20036;-38
2022/11/07 06:32:11;;;;;;;39.67;24.98;;;;;;;17.76;64.23;100123.56;5050769;28;20025;-37
2022/11/07 06:34:37;;;;;;;38.20;23.92;;;;;;;17.98;63.36;100119.16;5050345;28;20021;-38
2022/11/07 06:37:02;;;;;;;39.80;24.83;;;;;;;18.01;62.42;100128.66;5050994;28;20517;-38
2022/11/07 06:39:27;;;;;;;69.07;31.73;;;;;;;17.37;64.12;100136.84;5051113;28;20028;-36
2022/11/07 06:41:53;;;;;;;73.93;33.75;;;;;;;17.56;64.05;100140.19;5050360;28;20021;-37
2022/11/07 06:44:18;;;;;;;69.80;33.70;;;;;;;17.82;63.63;100144.16;5049183;28;20115;-37
2022/11/07 06:46:47;;;;;;;53.25;29.02;;;;;;;18.01;62.79;100146.66;5049608;28;20024;-37
2022/11/07 06:49:14;;;;;;;44.85;26.08;;;;;;;17.97;62.65;100144.47;5049350;28;20045;-37
2022/11/07 06:51:39;;;;;;;42.95;26.60;;;;;;;18.07;62.63;100156.47;5050311;28;20457;-38
2022/11/07 06:54:05;;;;;;;39.00;24.95;;;;;;;18.17;62.92;100154.75;5050369;28;20028;-37
2022/11/07 06:56:31;;;;;;;41.53;24.83;;;;;;;18.28;62.17;100157.63;5050260;28;20033;-38
2022/11/07 06:58:56;;;;;;;37.15;23.75;;;;;;;18.36;61.74;100159.91;5050409;28;20036;-37
2022/11/07 07:01:21;;;;;;;41.03;26.08;;;;;;;18.32;61.58;100164.16;5050554;28;20031;-37
2022/11/07 07:03:47;;;;;;;30.92;19.48;;;;;;;18.43;67.80;100174.06;5050173;28;20120;-37
2022/11/07 07:06:15;;;;;;;39.05;25.83;;;;;;;18.78;65.28;100172.16;5050349;28;20541;-38
2022/11/07 07:08:42;;;;;;;33.20;22.45;;;;;;;19.14;64.07;100178.88;5050377;28;20032;-36
2022/11/07 07:11:10;;;;;;;33.58;19.60;;;;;;;19.40;63.96;100176.50;5050257;28;20413;-38
2022/11/07 07:13:36;;;;;;;28.23;18.13;;;;;;;19.66;62.01;100164.94;5050319;28;20020;-37
2022/11/07 07:16:02;;;;;;;26.75;17.42;;;;;;;19.91;60.11;100166.31;5050302;28;20090;-37
2022/11/07 07:18:28;;;;;;;25.60;16.23;;;;;;;20.01;60.53;100168.28;5050312;28;20035;-38
2022/11/07 07:21:08;;;;;;;27.75;15.80;;;;;;;20.08;59.95;100158.09;5050023;28;20033;-37
2022/11/07 07:23:35;;;;;;;30.02;16.88;;;;;;;20.33;57.60;100159.38;5049717;28;20125;-38
2022/11/07 07:26:02;;;;;;;32.95;18.00;;;;;;;20.45;56.58;100160.03;5050196;28;20478;-37
2022/11/07 07:28:28;;;;;;;28.88;18.23;;;;;;;20.55;55.77;100157.41;5050064;28;20021;-38
2022/11/07 07:31:04;;;;;;;28.25;16.65;;;;;;;20.89;56.13;100151.69;5049887;28;20021;-38
2022/11/07 07:33:30;;;;;;;28.40;17.33;;;;;;;21.45;53.66;100151.97;5050157;28;20025;-36
2022/11/07 07:35:55;;;;;;;26.90;16.40;;;;;;;21.70;51.93;100150.41;5050286;28;20082;-37
2022/11/07 07:38:21;;;;;;;28.23;16.80;;;;;;;21.97;50.93;100157.50;5049662;28;20037;-37
2022/11/07 07:40:46;;;;;;;27.55;17.13;;;;;;;22.28;50.62;100158.38;5049683;28;20025;-37
2022/11/07 07:43:11;;;;;;;30.42;16.58;;;;;;;22.42;48.63;100164.06;5049432;28;20135;-37
2022/11/07 07:45:37;;;;;;;30.83;16.05;;;;;;;22.35;49.08;100160.81;5052654;28;20032;-36
2022/11/07 07:48:02;;;;;;;33.78;18.05;;;;;;;22.68;47.92;100164.06;5053973;28;20025;-37
2022/11/07 07:50:28;;;;;;;24.85;16.00;;;;;;;22.16;48.66;100163.22;5054115;28;20488;-37
2022/11/07 07:52:57;;;;;;;31.33;17.17;;;;;;;22.27;48.28;100147.81;5053885;28;20485;-36
2022/11/07 07:55:23;;;;;;;26.63;16.35;;;;;;;22.53;48.03;100144.00;5053914;28;20024;-37
2022/11/07 07:57:48;;;;;;;31.38;14.85;;;;;;;22.47;46.83;100153.22;5053873;28;20037;-36
2022/11/07 08:00:14;;;;;;;26.40;15.23;;;;;;;21.55;49.04;100137.66;5053794;28;20056;-37
2022/11/07 08:02:42;;;;;;;27.52;14.20;;;;;;;22.01;49.38;100145.06;5054036;28;20029;-38
2022/11/07 08:05:12;;;;;;;26.35;16.45;;;;;;;21.97;49.46;100143.94;5053950;28;20025;-36
2022/11/07 08:07:48;;;;;;;22.25;14.38;;;;;;;22.62;47.46;100145.06;5053701;28;20446;-38
2022/11/07 08:10:14;;;;;;;19.25;9.70;;;;;;;21.80;46.90;100138.78;5053359;28;20610;-38
2022/11/07 08:12:44;;;;;;;13.95;7.10;;;;;;;21.47;46.88;100152.50;5053410;28;20116;-37
2022/11/07 08:15:11;;;;;;;15.52;6.70;;;;;;;21.09;48.09;100149.09;5054156;28;20017;-37
2022/11/07 08:17:37;;;;;;;14.07;6.53;;;;;;;21.34;47.69;100138.63;5053594;28;20021;-37
2022/11/07 08:20:03;;;;;;;15.52;6.13;;;;;;;21.50;47.08;100137.66;5053535;28;20146;-36
2022/11/07 08:22:28;;;;;;;10.18;5.38;;;;;;;20.99;46.77;100140.13;5053556;28;20116;-36
2022/11/07 08:24:53;;;;;;;8.75;5.40;;;;;;;19.82;49.52;100138.97;5052970;28;20055;-37
2022/11/07 08:27:19;;;;;;;14.82;5.95;;;;;;;19.42;50.73;100150.91;5053538;28;20111;-37
2022/11/07 08:29:44;;;;;;;7.80;5.10;;;;;;;19.60;51.14;100151.66;5053228;28;20473;-36
2022/11/07 08:32:10;;;;;;;9.63;5.38;;;;;;;19.89;49.62;100144.13;5053401;28;20025;-37
2022/11/07 08:34:35;;;;;;;10.25;4.80;;;;;;;19.68;49.67;100145.78;5053240;28;20096;-37
2022/11/07 08:37:00;;;;;;;9.25;4.90;;;;;;;19.83;49.70;100148.66;5053049;28;20116;-37
2022/11/07 08:39:26;;;;;;;9.57;5.35;;;;;;;19.99;49.21;100146.94;5052782;28;20455;-38
2022/11/07 08:41:51;;;;;;;11.73;5.70;;;;;;;20.46;47.83;100157.03;5052972;28;20032;-37
2022/11/07 08:44:16;;;;;;;10.98;5.30;;;;;;;20.05;48.51;100159.44;5052968;28;20025;-38
2022/11/07 08:46:42;;;;;;;9.82;5.22;;;;;;;19.91;49.25;100155.50;5053208;28;20130;-37
2022/11/07 08:49:07;;;;;;;11.88;4.95;;;;;;;20.29;47.73;100159.09;5053032;28;20120;-36
2022/11/07 08:51:33;;;;;;;8.85;4.97;;;;;;;19.89;48.62;100161.16;5053458;28;20025;-37
2022/11/07 08:53:58;;;;;;;12.00;5.43;;;;;;;19.91;48.88;100161.75;5052795;28;20013;-38
2022/11/07 08:56:24;;;;;;;9.45;5.18;;;;;;;19.77;48.33;100155.09;5051982;28;20033;-37
2022/11/07 08:58:49;;;;;;;8.20;5.00;;;;;;;19.71;48.51;100156.09;5052864;28;20134;-37
2022/11/07 09:01:15;;;;;;;9.35;5.25;;;;;;;19.91;49.28;100159.03;5052673;28;20099;-36
2022/11/07 09:03:40;;;;;;;14.00;5.65;;;;;;;19.85;49.01;100168.13;5052743;28;20132;-39
2022/11/07 09:06:06;;;;;;;9.38;5.28;;;;;;;19.78;49.50;100164.84;5052623;28;20636;-36
2022/11/07 09:08:31;;;;;;;12.73;5.30;;;;;;;19.87;49.62;100166.00;5052561;28;20051;-39
2022/11/07 09:11:03;;;;;;;12.70;5.53;;;;;;;20.46;47.54;100165.16;5052537;28;20028;-38
2022/11/07 09:13:30;;;;;;;10.68;5.40;;;;;;;20.53;47.41;100162.25;5052465;28;20338;-37
2022/11/07 09:15:58;;;;;;;12.23;5.65;;;;;;;20.98;46.37;100158.25;5052663;28;20036;-38
2022/11/07 09:18:25;;;;;;;11.98;5.60;;;;;;;20.69;46.81;100155.91;5053640;28;20033;-37
2022/11/07 09:20:50;;;;;;;11.93;5.65;;;;;;;20.94;46.95;100164.44;5053163;28;20216;-37
2022/11/07 09:23:16;;;;;;;10.35;5.68;;;;;;;21.15;45.80;100152.66;5052986;28;20628;-38
2022/11/07 09:25:41;;;;;;;12.18;5.82;;;;;;;21.47;45.24;100155.22;5052626;28;20052;-37
2022/11/07 09:28:07;;;;;;;12.15;5.72;;;;;;;20.80;46.73;100153.25;5053043;28;20485;-37
2022/11/07 09:30:32;;;;;;;9.93;5.60;;;;;;;20.81;46.56;100157.59;5053090;28;20024;-37
2022/11/07 09:32:58;;;;;;;10.05;5.90;;;;;;;20.58;46.88;100165.00;5052768;28;20025;-37
2022/11/07 09:35:24;;;;;;;12.45;6.05;;;;;;;20.80;46.80;100150.56;5052233;28;20017;-37
2022/11/07 09:37:50;;;;;;;12.30;6.30;;;;;;;20.85;45.96;100154.09;5052067;28;20025;-36
2022/11/07 09:40:18;;;;;;;10.15;5.97;;;;;;;21.11;45.14;100153.44;5052173;28;20392;-37
2022/11/07 09:42:55;;;;;;;15.43;6.40;;;;;;;21.18;45.35;100144.00;5052098;28;20056;-38
2022/11/07 09:45:21;;;;;;;16.35;6.63;;;;;;;21.14;45.50;100139.38;5051754;28;20397;-37
2022/11/07 09:48:14;;;;;;;11.50;5.85;;;;;;;21.11;45.47;100146.13;5051745;28;20027;-36
2022/11/07 09:50:42;;;;;;;10.77;6.60;;;;;;;21.52;44.44;100140.09;5051559;28;20060;-36
2022/11/07 09:53:13;;;;;;;11.70;6.63;;;;;;;21.35;44.70;100138.38;5051668;28;20075;-37
2022/11/07 09:55:59;;;;;;;10.82;6.22;;;;;;;21.50;43.82;100134.94;5051935;28;20025;-38
2022/11/07 09:58:30;;;;;;;13.18;7.30;;;;;;;21.98;44.36;100132.03;5051984;28;20506;-37
2022/11/07 10:01:00;;;;;;;14.98;6.85;;;;;;;21.81;43.27;100118.75;5051459;28;20144;-37
2022/11/07 10:03:25;;;;;;;14.60;7.10;;;;;;;21.50;44.67;100126.00;5049953;28;20401;-38
2022/11/07 10:06:23;;;;;;;13.98;7.47;;;;;;;21.54;43.83;100127.91;5051185;28;20048;-38
2022/11/07 10:09:04;;;;;;;14.52;7.22;;;;;;;21.97;43.43;100128.53;5051103;28;20093;-37
2022/11/07 10:11:33;;;;;;;;;;;;;;;21.96;43.91;100128.78;5050523;28;20025;-37
2022/11/07 10:14:11;;;;;;;15.20;7.20;;;;;;;22.27;43.10;100124.22;5051731;28;20016;-37
2022/11/07 10:16:48;;;;;;;12.85;6.95;;;;;;;22.34;43.18;100122.03;5051284;28;20467;-37
2022/11/07 10:19:32;;;;;;;13.55;6.97;;;;;;;22.72;43.07;100119.81;5050999;28;20037;-38
2022/11/07 10:22:03;;;;;;;12.57;7.10;;;;;;;23.31;40.52;100121.00;5050744;28;20402;-36
2022/11/07 10:24:45;;;;;;;11.02;7.20;;;;;;;23.25;40.97;100119.41;5050355;28;20048;-36
2022/11/07 10:27:11;;;;;;;24.17;8.60;;;;;;;23.55;40.18;100117.59;5050790;28;20025;-37
2022/11/07 10:29:52;;;;;;;19.08;8.45;;;;;;;23.78;39.66;100119.66;5050993;28;20119;-36
2022/11/07 10:32:25;;;;;;;13.80;8.82;;;;;;;23.85;39.47;100104.94;5050837;28;20575;-37
2022/11/07 10:34:54;;;;;;;14.68;8.38;;;;;;;23.13;40.63;100108.88;5050735;28;20021;-39
2022/11/07 10:37:20;;;;;;;14.13;8.60;;;;;;;23.00;41.10;100096.66;5050940;28;20025;-36
2022/11/07 10:39:46;;;;;;;21.80;8.75;;;;;;;22.78;41.05;100096.19;5050863;28;20035;-37
2022/11/07 10:42:18;;;;;;;16.98;8.85;;;;;;;22.31;41.52;100094.66;5050779;28;20024;-37
2022/11/07 10:44:44;;;;;;;19.17;8.90;;;;;;;21.84;42.90;100086.53;5051136;28;20106;-37
2022/11/07 10:47:22;;;;;;;17.55;8.70;;;;;;;21.94;43.06;100087.63;5050364;28;20025;-37
2022/11/07 10:50:02;;;;;;;14.60;8.48;;;;;;;22.18;42.31;100079.72;5050514;28;20107;-37
2022/11/07 10:52:28;;;;;;;14.18;9.05;;;;;;;22.26;42.55;100076.53;5050166;28;20029;-37
2022/11/07 10:55:16;;;;;;;17.95;8.70;;;;;;;22.63;41.33;100073.44;5049911;28;20024;-38
2022/11/07 10:57:44;;;;;;;14.25;8.35;;;;;;;21.97;42.41;100077.06;5049540;28;20068;-37
2022/11/07 11:00:29;;;;;;;18.83;8.52;;;;;;;21.88;43.24;100070.53;5048666;28;20029;-37
2022/11/07 11:02:55;;;;;;;17.27;9.45;;;;;;;22.01;42.61;100069.19;5049876;28;20474;-37
2022/11/07 11:05:39;;;;;;;18.48;8.77;;;;;;;22.36;42.85;100059.44;5050003;28;20057;-37
2022/11/07 11:08:14;;;;;;;16.27;8.52;;;;;;;22.72;41.69;100056.63;5050358;28;20511;-37
2022/11/07 11:10:39;;;;;;;16.40;8.90;;;;;;;23.33;41.04;100059.06;5050441;28;20032;-37
2022/11/07 11:13:05;;;;;;;21.38;10.20;;;;;;;22.91;40.90;100045.97;5050479;28;20374;-37
2022/11/07 11:15:41;;;;;;;15.65;9.05;;;;;;;22.55;42.44;100048.81;5049872;28;20398;-37
2022/11/07 11:18:16;;;;;;;15.18;9.30;;;;;;;23.22;40.33;100039.31;5049556;28;20025;-36
2022/11/07 11:20:57;;;;;;;21.38;9.38;;;;;;;23.28;40.00;100042.00;5049668;28;20195;-37
2022/11/07 11:23:26;;;;;;;18.73;9.55;;;;;;;22.78;40.58;100034.63;5050107;28;20094;-37
2022/11/07 11:25:57;;;;;;;;;;;;;;;22.86;40.57;100033.22;5050074;28;20098;-37
2022/11/07 11:28:28;;;;;;;24.00;11.75;;;;;;;22.62;41.39;100035.78;5049891;28;19986;-37
2022/11/07 11:31:01;;;;;;;22.52;11.57;;;;;;;23.05;41.21;100028.00;5049978;28;20087;-38